Time;durP1;ratioP1;P1;durP2;ratioP2;P2;SDS_P1;SDS_P2;PMS_P1;PMS_P2;Temp;Humidity;BMP_temperature;BMP_pressure;BME280_temperature;BME280_humidity;BME280_pressure;Samples;Min_cycle;Max_cycle;Signal;HPM_P1;HPM_P2
2022/03/15 00:00:49;;;;;;;24.73;13.03;;;7.10;99.90;;;;;;5104318;28;20189;-46
2022/03/15 00:03:16;;;;;;;21.97;12.50;;;7.00;99.90;;;;;;5090308;28;20212;-48
2022/03/15 00:05:43;;;;;;;22.93;13.03;;;7.00;99.90;;;;;;5101500;28;20507;-45
2022/03/15 00:08:10;;;;;;;24.03;13.20;;;7.00;99.90;;;;;;5093398;28;20205;-46
2022/03/15 00:10:38;;;;;;;24.90;12.87;;;7.00;99.90;;;;;;5101304;28;20215;-44
2022/03/15 00:13:07;;;;;;;22.00;13.37;;;7.00;99.90;;;;;;5099054;28;20236;-45
2022/03/15 00:15:35;;;;;;;20.97;12.10;;;7.00;99.90;;;;;;5097934;28;20247;-46
2022/03/15 00:18:04;;;;;;;24.13;12.80;;;6.90;99.90;;;;;;5105223;28;20196;-47
2022/03/15 00:20:31;;;;;;;23.87;13.30;;;6.90;99.90;;;;;;5085876;28;20225;-45
2022/03/15 00:22:59;;;;;;;23.60;12.43;;;6.90;99.90;;;;;;5099829;28;20228;-48
2022/03/15 00:25:26;;;;;;;29.10;12.87;;;6.90;99.90;;;;;;5094464;28;20245;-47
2022/03/15 00:27:55;;;;;;;31.43;13.40;;;6.90;99.90;;;;;;5102829;27;20650;-48
2022/03/15 00:30:23;;;;;;;27.30;13.10;;;6.90;99.90;;;;;;5101734;28;20213;-45
2022/03/15 00:32:52;;;;;;;23.20;13.53;;;6.90;99.90;;;;;;5098812;28;20209;-48
2022/03/15 00:35:24;;;;;;;23.10;12.37;;;6.90;99.90;;;;;;5088977;28;20209;-45
2022/03/15 00:37:53;;;;;;;23.43;12.23;;;6.80;99.90;;;;;;5101736;28;20198;-50
2022/03/15 00:40:21;;;;;;;23.43;12.77;;;6.80;99.90;;;;;;5098067;28;20196;-46
2022/03/15 00:42:50;;;;;;;28.93;13.70;;;6.80;99.90;;;;;;5102438;28;20305;-49
2022/03/15 00:45:24;;;;;;;24.43;12.63;;;6.80;99.90;;;;;;5103767;28;20233;-47
2022/03/15 00:47:52;;;;;;;27.73;12.97;;;6.80;99.90;;;;;;5102442;28;20200;-46
2022/03/15 00:50:20;;;;;;;31.10;13.17;;;6.80;99.90;;;;;;5088664;28;20224;-48
2022/03/15 00:52:47;;;;;;;22.93;11.30;;;6.80;99.90;;;;;;5096729;28;20296;-44
2022/03/15 00:55:14;;;;;;;26.77;11.47;;;6.80;99.90;;;;;;5099355;28;20200;-46
2022/03/15 00:57:44;;;;;;;23.97;12.87;;;6.70;99.90;;;;;;5102000;28;20313;-48
2022/03/15 01:00:14;;;;;;;24.53;12.90;;;6.70;99.90;;;;;;5105504;28;20673;-46
2022/03/15 01:02:42;;;;;;;31.70;13.60;;;6.70;99.90;;;;;;5101682;28;20224;-46
2022/03/15 01:05:09;;;;;;;23.30;12.97;;;6.70;99.90;;;;;;5105265;28;20213;-45
2022/03/15 01:07:39;;;;;;;28.37;13.40;;;6.70;99.90;;;;;;5086970;28;20959;-46
2022/03/15 01:10:07;;;;;;;30.03;15.03;;;6.70;99.90;;;;;;5098087;28;20221;-45
2022/03/15 01:12:34;;;;;;;27.20;12.80;;;6.70;99.90;;;;;;5101343;28;20214;-47
2022/03/15 01:15:01;;;;;;;22.60;14.17;;;6.60;99.90;;;;;;5105086;28;20197;-51
2022/03/15 01:17:29;;;;;;;24.87;14.70;;;6.60;99.90;;;;;;5099450;28;20615;-53
2022/03/15 01:19:57;;;;;;;30.93;15.10;;;6.50;99.90;;;;;;5103353;28;20212;-45
2022/03/15 01:22:24;;;;;;;30.83;14.77;;;6.50;99.90;;;;;;5085610;28;20245;-49
2022/03/15 01:24:54;;;;;;;25.77;13.63;;;6.50;99.90;;;;;;5103401;28;20197;-46
2022/03/15 01:27:21;;;;;;;29.37;14.60;;;6.40;99.90;;;;;;5096291;28;20247;-49
2022/03/15 01:29:49;;;;;;;38.93;15.57;;;6.40;99.90;;;;;;5101363;28;20194;-48
2022/03/15 01:32:17;;;;;;;31.50;14.20;;;6.30;99.90;;;;;;5103398;28;20643;-48
2022/03/15 01:34:47;;;;;;;26.53;14.77;;;6.30;99.90;;;;;;5100709;28;20312;-49
2022/03/15 01:37:15;;;;;;;40.17;15.70;;;6.30;99.90;;;;;;5102092;28;20204;-44
2022/03/15 01:39:42;;;;;;;22.60;12.00;;;6.30;99.90;;;;;;5090748;28;20980;-50
2022/03/15 01:42:10;;;;;;;21.50;11.73;;;6.20;99.90;;;;;;5098505;28;20224;-41
2022/03/15 01:44:37;;;;;;;21.03;12.40;;;6.20;99.90;;;;;;5099843;28;20225;-47
2022/03/15 01:47:05;;;;;;;25.03;13.57;;;6.10;99.90;;;;;;5102275;28;20221;-46
2022/03/15 01:49:31;;;;;;;26.73;13.50;;;6.20;99.90;;;;;;5098465;28;20272;-45
2022/03/15 01:51:58;;;;;;;27.00;14.07;;;6.20;99.90;;;;;;5102912;28;20712;-44
2022/03/15 01:54:26;;;;;;;25.00;13.33;;;6.20;99.90;;;;;;5086555;28;20221;-45
2022/03/15 01:56:53;;;;;;;29.37;13.73;;;6.20;99.90;;;;;;5094002;28;20213;-45
2022/03/15 01:59:20;;;;;;;26.47;15.13;;;6.30;99.90;;;;;;5100668;28;20201;-45
2022/03/15 02:01:47;;;;;;;27.97;14.67;;;6.30;99.90;;;;;;5100479;28;20768;-46
2022/03/15 02:04:16;;;;;;;31.77;14.10;;;6.30;99.90;;;;;;5103170;28;20213;-51
2022/03/15 02:06:44;;;;;;;28.43;14.57;;;6.30;99.90;;;;;;5099615;28;20242;-47
2022/03/15 02:09:12;;;;;;;28.43;14.17;;;6.30;99.90;;;;;;5103932;28;20212;-48
2022/03/15 02:11:42;;;;;;;26.97;13.67;;;6.20;99.90;;;;;;5080912;28;20220;-45
2022/03/15 02:14:09;;;;;;;24.37;12.80;;;6.20;99.90;;;;;;5103733;28;20213;-46
2022/03/15 02:16:36;;;;;;;26.53;13.87;;;6.20;99.90;;;;;;5097263;28;20201;-47
2022/03/15 02:19:04;;;;;;;25.13;13.30;;;6.10;99.90;;;;;;5102870;28;20279;-46
2022/03/15 02:21:34;;;;;;;26.23;13.93;;;6.10;99.90;;;;;;5096577;28;20204;-45
2022/03/15 02:24:01;;;;;;;29.17;13.10;;;6.10;99.90;;;;;;5103222;28;20246;-47
2022/03/15 02:26:28;;;;;;;37.73;13.93;;;6.00;99.90;;;;;;5085191;28;20594;-49
2022/03/15 02:28:55;;;;;;;25.17;12.57;;;6.00;99.90;;;;;;5097287;28;20212;-47
2022/03/15 02:31:21;;;;;;;27.13;13.33;;;6.00;99.90;;;;;;5101523;28;20220;-47
2022/03/15 02:33:49;;;;;;;27.17;13.47;;;6.00;99.90;;;;;;5100794;28;20848;-45
2022/03/15 02:36:17;;;;;;;28.43;12.97;;;5.90;99.90;;;;;;5101777;28;20197;-50
2022/03/15 02:38:47;;;;;;;33.27;12.77;;;5.90;99.90;;;;;;5100248;28;20887;-45
2022/03/15 02:41:15;;;;;;;35.73;14.20;;;5.90;99.90;;;;;;5089056;28;20205;-47
2022/03/15 02:43:43;;;;;;;36.90;14.63;;;5.90;99.90;;;;;;5090810;28;20933;-45
2022/03/15 02:46:11;;;;;;;26.07;14.50;;;5.90;99.90;;;;;;5096439;28;20208;-48
2022/03/15 02:48:38;;;;;;;39.73;15.27;;;6.00;99.90;;;;;;5094801;28;20914;-49
2022/03/15 02:51:08;;;;;;;31.60;14.23;;;5.90;99.90;;;;;;5097205;28;20231;-46
2022/03/15 02:53:37;;;;;;;28.37;15.10;;;5.90;99.90;;;;;;5096128;28;20964;-49
2022/03/15 02:56:11;;;;;;;26.37;14.63;;;6.00;99.90;;;;;;5088052;28;20283;-47
2022/03/15 02:58:38;;;;;;;30.90;15.07;;;6.00;99.90;;;;;;5092784;28;20208;-52
2022/03/15 03:01:05;;;;;;;28.23;14.53;;;6.00;99.90;;;;;;5098010;28;20193;-48
2022/03/15 03:03:32;;;;;;;24.53;14.30;;;5.90;99.90;;;;;;5098732;28;20212;-46
2022/03/15 03:05:59;;;;;;;29.67;15.17;;;5.90;99.90;;;;;;5103117;28;20204;-51
2022/03/15 03:08:27;;;;;;;23.97;13.30;;;5.90;99.90;;;;;;5104598;27;20657;-52
2022/03/15 03:10:58;;;;;;;28.97;15.57;;;5.90;99.90;;;;;;5092736;28;20564;-47
2022/03/15 03:13:27;;;;;;;31.77;15.53;;;5.90;99.90;;;;;;5104376;28;20239;-47
2022/03/15 03:15:56;;;;;;;28.40;15.57;;;5.90;99.90;;;;;;5099648;28;20246;-50
2022/03/15 03:18:23;;;;;;;34.27;16.77;;;5.90;99.90;;;;;;5104865;28;20197;-49
2022/03/15 03:20:54;;;;;;;31.20;15.63;;;5.90;99.90;;;;;;5103792;28;20205;-49
2022/03/15 03:23:21;;;;;;;29.67;14.80;;;5.90;99.90;;;;;;5104878;28;20213;-48
2022/03/15 03:25:48;;;;;;;36.63;16.67;;;5.90;99.90;;;;;;5104341;28;20189;-46
2022/03/15 03:28:16;;;;;;;30.97;15.57;;;5.90;99.90;;;;;;5087961;28;20752;-47
2022/03/15 03:30:47;;;;;;;32.20;16.50;;;5.90;99.90;;;;;;5097322;28;20217;-46
2022/03/15 03:33:15;;;;;;;32.30;16.50;;;5.90;99.90;;;;;;5106387;28;20237;-44
2022/03/15 03:35:43;;;;;;;34.87;18.47;;;5.90;99.90;;;;;;5102665;28;20284;-44
2022/03/15 03:38:10;;;;;;;40.40;18.10;;;5.90;99.90;;;;;;5106567;28;20225;-44
2022/03/15 03:40:37;;;;;;;37.20;18.57;;;5.90;99.90;;;;;;5101972;28;20186;-43
2022/03/15 03:43:04;;;;;;;37.23;17.27;;;5.90;99.90;;;;;;5091416;28;20753;-44
2022/03/15 03:45:32;;;;;;;38.73;17.20;;;5.90;99.90;;;;;;5102389;28;20201;-47
2022/03/15 03:48:00;;;;;;;38.13;17.23;;;5.90;99.90;;;;;;5100334;28;20206;-45
2022/03/15 03:50:27;;;;;;;31.97;16.07;;;5.90;99.90;;;;;;5098800;28;20193;-49
2022/03/15 03:52:54;;;;;;;36.07;16.20;;;5.80;99.90;;;;;;5105551;28;20217;-45
2022/03/15 03:55:21;;;;;;;40.37;16.23;;;5.80;99.90;;;;;;5104221;28;20240;-49
2022/03/15 03:57:48;;;;;;;38.40;17.47;;;5.80;99.90;;;;;;5088784;28;20213;-46
2022/03/15 04:00:16;;;;;;;45.23;17.50;;;5.80;99.90;;;;;;5105800;28;20733;-47
2022/03/15 04:02:43;;;;;;;40.17;17.00;;;5.80;99.90;;;;;;5097545;28;20372;-44
2022/03/15 04:05:12;;;;;;;42.43;17.70;;;5.80;99.90;;;;;;5105917;28;20201;-44
2022/03/15 04:07:41;;;;;;;48.20;20.50;;;5.80;99.90;;;;;;5101643;28;20190;-47
2022/03/15 04:10:09;;;;;;;50.77;19.70;;;5.80;99.90;;;;;;5106462;28;20198;-45
2022/03/15 04:12:36;;;;;;;63.63;21.77;;;5.80;99.90;;;;;;5087121;28;20240;-44
2022/03/15 04:15:03;;;;;;;47.17;18.37;;;5.70;99.90;;;;;;5105710;28;20197;-44
2022/03/15 04:17:30;;;;;;;54.47;17.57;;;5.80;99.90;;;;;;5096204;28;20209;-50
2022/03/15 04:19:57;;;;;;;57.27;21.40;;;5.70;99.90;;;;;;5103842;28;20205;-49
2022/03/15 04:22:27;;;;;;;60.40;21.40;;;5.60;99.90;;;;;;5102727;28;20194;-44
2022/03/15 04:24:55;;;;;;;88.33;24.30;;;5.60;99.90;;;;;;5105175;28;20201;-47
2022/03/15 04:27:22;;;;;;;75.77;25.87;;;5.50;99.90;;;;;;5103220;28;20242;-46
2022/03/15 04:29:49;;;;;;;62.43;20.17;;;5.50;99.90;;;;;;5088664;28;20189;-45
2022/03/15 04:32:18;;;;;;;75.63;25.67;;;5.40;99.90;;;;;;5104786;28;20209;-44
2022/03/15 04:34:45;;;;;;;55.57;19.40;;;5.40;99.90;;;;;;5096995;27;20194;-43
2022/03/15 04:37:12;;;;;;;58.97;22.60;;;5.40;99.90;;;;;;5104564;28;20318;-44
2022/03/15 04:39:40;;;;;;;70.23;24.50;;;5.40;99.90;;;;;;5101484;28;20199;-45
2022/03/15 04:42:08;;;;;;;59.23;19.60;;;5.40;99.90;;;;;;5105522;28;20185;-49
2022/03/15 04:44:35;;;;;;;50.23;20.97;;;5.40;99.90;;;;;;5086827;28;25204;-47
2022/03/15 04:47:02;;;;;;;44.43;21.27;;;5.30;99.90;;;;;;5104267;28;20204;-46
2022/03/15 04:49:29;;;;;;;52.67;20.57;;;5.30;99.90;;;;;;5094981;28;20205;-50
2022/03/15 04:51:56;;;;;;;53.37;22.13;;;5.20;99.90;;;;;;5096443;28;20229;-43
2022/03/15 04:54:22;;;;;;;50.70;21.80;;;5.20;99.90;;;;;;5103131;28;20229;-49
2022/03/15 04:56:50;;;;;;;57.93;25.20;;;5.20;99.90;;;;;;5103201;28;20186;-46
2022/03/15 04:59:17;;;;;;;61.03;23.77;;;5.20;99.90;;;;;;5104337;28;20208;-49
2022/03/15 05:01:44;;;;;;;56.90;23.23;;;5.20;99.90;;;;;;5087453;28;20201;-46
2022/03/15 05:04:11;;;;;;;70.90;24.07;;;5.20;99.90;;;;;;5104652;28;20216;-48
2022/03/15 05:06:39;;;;;;;75.07;24.70;;;5.30;99.90;;;;;;5094103;28;20197;-50
2022/03/15 05:09:06;;;;;;;75.70;23.30;;;5.30;99.90;;;;;;5105217;28;20204;-48
2022/03/15 05:11:32;;;;;;;53.90;23.23;;;5.30;99.90;;;;;;5100427;28;20960;-46
2022/03/15 05:14:03;;;;;;;54.67;22.77;;;5.30;99.90;;;;;;5105041;28;20254;-44
2022/03/15 05:16:30;;;;;;;56.33;23.00;;;5.30;99.90;;;;;;5085034;28;20216;-45
2022/03/15 05:18:57;;;;;;;62.00;21.10;;;5.40;99.90;;;;;;5103987;28;20205;-43
2022/03/15 05:21:25;;;;;;;70.33;21.93;;;5.40;99.90;;;;;;5095158;28;20204;-49
2022/03/15 05:23:53;;;;;;;75.67;21.97;;;5.30;99.90;;;;;;5103350;28;20260;-45
2022/03/15 05:26:21;;;;;;;72.07;20.00;;;5.30;99.90;;;;;;5102680;28;20246;-47
2022/03/15 05:28:50;;;;;;;76.37;24.43;;;5.20;99.90;;;;;;5096800;28;20292;-48
2022/03/15 05:31:22;;;;;;;110.37;22.07;;;5.20;99.90;;;;;;5085876;27;20370;-48
2022/03/15 05:33:52;;;;;;;103.77;21.97;;;5.20;99.90;;;;;;5093590;28;20224;-45
2022/03/15 05:36:19;;;;;;;67.60;19.67;;;5.20;99.90;;;;;;5093521;28;20204;-50
2022/03/15 05:38:46;;;;;;;112.27;21.47;;;5.20;99.90;;;;;;5099906;28;20276;-45
2022/03/15 05:41:13;;;;;;;72.93;19.40;;;5.20;99.90;;;;;;5101920;28;20559;-45
2022/03/15 05:43:40;;;;;;;87.40;19.50;;;5.20;99.90;;;;;;5098436;28;20218;-45
2022/03/15 05:46:09;;;;;;;118.93;20.33;;;5.10;99.90;;;;;;5086877;28;20204;-50
2022/03/15 05:48:37;;;;;;;97.47;21.63;;;5.10;99.90;;;;;;5091748;28;20232;-49
2022/03/15 05:51:04;;;;;;;66.70;19.03;;;5.10;99.90;;;;;;5096164;28;20228;-49
2022/03/15 05:53:31;;;;;;;106.03;21.97;;;5.10;99.90;;;;;;5091017;28;20307;-47
2022/03/15 05:55:58;;;;;;;67.93;22.67;;;5.10;99.90;;;;;;5101637;28;20677;-45
2022/03/15 05:58:25;;;;;;;74.67;19.10;;;5.10;99.90;;;;;;5099965;28;20277;-41
2022/03/15 06:00:55;;;;;;;85.10;19.90;;;5.10;99.90;;;;;;5101220;28;20209;-43
2022/03/15 06:03:22;;;;;;;74.13;18.10;;;5.00;99.90;;;;;;5082754;28;20217;-43
2022/03/15 06:05:52;;;;;;;61.93;18.73;;;5.00;99.90;;;;;;5090077;28;20340;-41
2022/03/15 06:08:19;;;;;;;77.37;19.93;;;5.00;99.90;;;;;;5102211;27;20257;-41
2022/03/15 06:10:46;;;;;;;59.37;18.93;;;5.00;99.90;;;;;;5103015;27;20203;-43
2022/03/15 06:13:13;;;;;;;98.13;20.60;;;5.10;99.90;;;;;;5103281;28;20224;-42
2022/03/15 06:15:40;;;;;;;87.33;19.83;;;5.10;99.90;;;;;;5102986;27;20842;-42
2022/03/15 06:18:06;;;;;;;90.53;20.10;;;5.10;99.90;;;;;;5088981;28;20212;-43
2022/03/15 06:20:34;;;;;;;58.27;19.30;;;5.10;99.90;;;;;;5093279;28;20212;-43
2022/03/15 06:23:02;;;;;;;70.77;19.50;;;5.20;99.90;;;;;;5100464;28;20209;-43
2022/03/15 06:25:30;;;;;;;124.57;21.60;;;5.20;99.90;;;;;;5097923;28;20615;-44
2022/03/15 06:27:57;;;;;;;97.57;20.77;;;5.20;99.90;;;;;;5102799;28;20634;-41
2022/03/15 06:30:25;;;;;;;56.77;20.23;;;5.20;99.90;;;;;;5101229;28;20204;-41
2022/03/15 06:32:52;;;;;;;69.50;21.13;;;5.20;99.90;;;;;;5087394;28;20225;-42
2022/03/15 06:35:20;;;;;;;46.90;19.97;;;5.20;99.90;;;;;;5100720;28;20725;-41
2022/03/15 06:37:48;;;;;;;55.13;20.93;;;5.20;99.90;;;;;;5096419;28;20260;-41
2022/03/15 06:40:19;;;;;;;96.57;23.10;;;5.30;99.90;;;;;;5101089;28;20709;-42
2022/03/15 06:42:47;;;;;;;57.07;23.73;;;5.40;99.90;;;;;;5099998;28;20213;-41
2022/03/15 06:45:13;;;;;;;90.53;23.73;;;5.40;99.90;;;;;;5096641;28;20276;-42
2022/03/15 06:47:40;;;;;;;72.60;25.60;;;5.40;99.90;;;;;;5095945;28;20181;-43
2022/03/15 06:50:08;;;;;;;70.50;25.73;;;5.40;99.90;;;;;;5083734;28;20201;-40
2022/03/15 06:52:35;;;;;;;58.43;25.50;;;5.40;99.90;;;;;;5088441;28;20321;-40
2022/03/15 06:55:02;;;;;;;80.00;25.90;;;5.40;99.90;;;;;;5083915;28;20292;-41
2022/03/15 06:57:30;;;;;;;82.30;29.07;;;5.50;99.90;;;;;;5100696;28;20251;-44
2022/03/15 06:59:59;;;;;;;98.47;28.87;;;5.50;99.90;;;;;;5082289;28;20206;-42
2022/03/15 07:02:26;;;;;;;86.10;28.47;;;5.50;99.90;;;;;;5091831;28;20251;-42
2022/03/15 07:04:52;;;;;;;111.07;31.33;;;5.50;99.90;;;;;;5080382;28;20201;-44
2022/03/15 07:07:20;;;;;;;108.93;31.83;;;5.60;99.90;;;;;;5087919;28;20201;-43
2022/03/15 07:09:47;;;;;;;89.70;30.43;;;5.60;99.90;;;;;;5095262;28;20192;-42
2022/03/15 07:12:13;;;;;;;92.60;31.60;;;5.60;99.90;;;;;;5100143;28;20216;-43
2022/03/15 07:14:43;;;;;;;79.73;29.97;;;5.60;99.90;;;;;;5091881;28;20224;-44
2022/03/15 07:17:09;;;;;;;80.50;27.93;;;5.60;99.90;;;;;;5089955;28;20707;-43
2022/03/15 07:19:37;;;;;;;72.30;27.93;;;5.70;99.90;;;;;;5085375;28;20619;-41
2022/03/15 07:22:05;;;;;;;75.03;28.33;;;5.60;99.90;;;;;;5085253;28;20201;-41
2022/03/15 07:24:32;;;;;;;78.70;28.93;;;5.60;99.90;;;;;;5091357;28;20328;-42
2022/03/15 07:26:59;;;;;;;91.70;31.13;;;5.70;99.90;;;;;;5089353;28;20217;-42
2022/03/15 07:29:26;;;;;;;98.20;31.03;;;5.70;99.90;;;;;;5098952;28;20841;-42
2022/03/15 07:31:57;;;;;;;88.37;32.23;;;5.70;99.90;;;;;;5095418;28;20262;-41
2022/03/15 07:34:24;;;;;;;98.73;33.63;;;5.70;99.90;;;;;;5100473;28;20213;-41
2022/03/15 07:36:51;;;;;;;102.40;33.27;;;5.80;99.90;;;;;;5076866;28;20201;-41
2022/03/15 07:39:18;;;;;;;97.50;32.80;;;5.70;99.90;;;;;;5095677;28;20556;-41
2022/03/15 07:41:46;;;;;;;94.97;29.30;;;5.70;99.90;;;;;;5083876;28;20368;-41
2022/03/15 07:44:13;;;;;;;83.47;28.97;;;5.60;99.90;;;;;;5099775;28;20228;-41
2022/03/15 07:46:48;;;;;;;91.87;31.70;;;5.60;99.90;;;;;;5092712;28;20262;-40
2022/03/15 07:49:17;;;;;;;82.93;31.90;;;5.60;99.90;;;;;;5101552;28;20215;-42
2022/03/15 07:51:45;;;;;;;104.07;33.90;;;5.60;99.90;;;;;;5083514;28;20205;-40
2022/03/15 07:54:12;;;;;;;100.67;34.10;;;5.70;99.90;;;;;;5098977;28;20220;-43
2022/03/15 07:56:39;;;;;;;83.77;32.07;;;5.80;99.90;;;;;;5095330;28;20225;-40
2022/03/15 07:59:06;;;;;;;94.00;34.10;;;5.80;99.90;;;;;;5105320;28;20210;-41
2022/03/15 08:01:33;;;;;;;114.40;44.63;;;5.90;99.90;;;;;;5097105;28;20206;-41
2022/03/15 08:03:59;;;;;;;106.60;36.07;;;5.90;99.90;;;;;;5103400;28;20201;-41
2022/03/15 08:06:30;;;;;;;84.47;32.63;;;5.90;99.90;;;;;;5099200;28;20197;-41
2022/03/15 08:08:58;;;;;;;84.70;31.73;;;5.90;99.90;;;;;;5080632;28;21021;-41
2022/03/15 08:11:26;;;;;;;92.13;33.30;;;6.00;99.90;;;;;;5098982;28;20212;-42
2022/03/15 08:13:54;;;;;;;86.63;30.53;;;6.10;99.90;;;;;;5100835;28;20225;-41
2022/03/15 08:16:22;;;;;;;84.97;31.97;;;6.10;99.90;;;;;;5098353;28;20197;-40
2022/03/15 08:18:49;;;;;;;80.63;31.03;;;6.10;99.90;;;;;;5095414;28;20209;-40
2022/03/15 08:21:16;;;;;;;79.17;28.27;;;6.20;99.90;;;;;;5104735;28;20196;-40
2022/03/15 08:23:45;;;;;;;68.03;28.27;;;6.10;99.90;;;;;;5085737;28;20233;-40
2022/03/15 08:26:12;;;;;;;69.33;29.07;;;6.10;99.90;;;;;;5092461;28;20569;-40
2022/03/15 08:28:39;;;;;;;73.30;29.40;;;6.10;99.90;;;;;;5102162;28;20254;-40
2022/03/15 08:31:06;;;;;;;68.53;28.00;;;6.20;99.90;;;;;;5104016;28;20205;-40
2022/03/15 08:33:33;;;;;;;65.93;29.63;;;6.20;99.90;;;;;;5094538;28;20235;-40
2022/03/15 08:36:00;;;;;;;66.87;30.37;;;6.30;99.90;;;;;;5102891;28;20272;-41
2022/03/15 08:38:28;;;;;;;68.40;29.50;;;6.30;99.90;;;;;;5088004;28;20674;-42
2022/03/15 08:40:57;;;;;;;67.83;31.10;;;6.40;99.90;;;;;;5096472;28;20212;-43
2022/03/15 08:43:24;;;;;;;69.73;30.80;;;6.40;99.90;;;;;;5097906;28;20310;-43
2022/03/15 08:45:51;;;;;;;67.63;29.37;;;6.40;99.90;;;;;;5100312;28;20302;-43
2022/03/15 08:48:18;;;;;;;67.33;30.40;;;6.40;99.90;;;;;;5099022;28;20583;-40
2022/03/15 08:50:44;;;;;;;67.37;29.67;;;6.50;99.90;;;;;;5094147;28;20218;-41
2022/03/15 08:53:11;;;;;;;68.83;29.83;;;6.50;99.90;;;;;;5091444;27;20213;-40
2022/03/15 08:55:38;;;;;;;66.17;29.40;;;6.60;99.90;;;;;;5095039;28;20205;-41
2022/03/15 08:58:06;;;;;;;62.90;26.97;;;6.70;99.90;;;;;;5096018;28;20216;-46
2022/03/15 09:00:33;;;;;;;94.50;42.57;;;6.70;99.90;;;;;;5100609;27;20195;-41
2022/03/15 09:02:59;;;;;;;62.27;28.50;;;6.70;99.90;;;;;;5097989;27;20229;-42
2022/03/15 09:05:27;;;;;;;59.53;26.60;;;6.70;99.90;;;;;;5104364;28;20201;-41
2022/03/15 09:07:53;;;;;;;55.63;27.73;;;6.70;99.90;;;;;;5099391;28;20264;-41
2022/03/15 09:10:21;;;;;;;60.00;27.60;;;6.80;99.90;;;;;;5090020;28;20197;-43
2022/03/15 09:12:49;;;;;;;58.40;27.20;;;6.90;99.90;;;;;;5086096;28;20241;-42
2022/03/15 09:15:18;;;;;;;54.70;24.80;;;7.00;99.90;;;;;;5103929;28;20220;-39
2022/03/15 09:17:44;;;;;;;52.87;25.27;;;7.10;99.90;;;;;;5093484;28;20199;-40
2022/03/15 09:20:14;;;;;;;57.33;26.40;;;7.00;99.90;;;;;;5099794;28;20215;-39
2022/03/15 09:22:41;;;;;;;51.03;24.77;;;7.10;99.90;;;;;;5098797;28;20217;-40
2022/03/15 09:25:08;;;;;;;52.00;23.70;;;7.20;99.90;;;;;;5083281;28;20209;-40
2022/03/15 09:27:35;;;;;;;56.63;25.83;;;7.30;99.90;;;;;;5078965;28;20201;-41
2022/03/15 09:30:02;;;;;;;58.93;25.80;;;7.40;99.90;;;;;;5098735;28;20201;-40
2022/03/15 09:32:30;;;;;;;58.67;26.73;;;7.50;99.90;;;;;;5095496;28;20212;-41
2022/03/15 09:34:57;;;;;;;57.33;26.77;;;7.40;99.90;;;;;;5094472;28;20203;-40
2022/03/15 09:37:24;;;;;;;57.13;26.83;;;7.50;99.90;;;;;;5101319;28;20208;-40
2022/03/15 09:39:52;;;;;;;62.53;27.97;;;7.50;99.90;;;;;;5084245;28;20212;-40
2022/03/15 09:42:22;;;;;;;60.20;28.57;;;7.50;99.90;;;;;;5098870;28;20719;-43
2022/03/15 09:44:50;;;;;;;58.30;27.53;;;7.60;99.90;;;;;;5088307;28;20205;-40
2022/03/15 09:47:24;;;;;;;61.33;26.40;;;7.60;99.90;;;;;;5101656;28;20194;-41
2022/03/15 09:49:54;;;;;;;50.97;26.00;;;7.60;99.90;;;;;;5090654;28;20288;-42
2022/03/15 09:52:22;;;;;;;54.53;27.57;;;7.60;99.90;;;;;;5102684;28;20335;-40
2022/03/15 09:54:49;;;;;;;52.50;25.23;;;7.70;99.90;;;;;;5082258;28;21687;-39
2022/03/15 09:57:15;;;;;;;46.40;24.93;;;7.70;99.90;;;;;;5102478;28;20193;-39
2022/03/15 09:59:42;;;;;;;49.97;25.67;;;7.70;99.90;;;;;;5088406;28;20197;-40
2022/03/15 10:02:10;;;;;;;50.20;26.90;;;7.80;99.90;;;;;;5098379;28;20203;-40
2022/03/15 10:04:37;;;;;;;54.87;25.13;;;7.90;99.90;;;;;;5099980;28;20213;-41
2022/03/15 10:07:05;;;;;;;45.87;24.07;;;8.00;99.90;;;;;;5095188;28;20627;-40
2022/03/15 10:09:32;;;;;;;43.83;22.17;;;8.00;99.90;;;;;;5102138;28;20760;-39
2022/03/15 10:12:00;;;;;;;43.97;22.23;;;8.00;99.90;;;;;;5081204;28;20205;-40
2022/03/15 10:14:28;;;;;;;39.93;21.40;;;8.10;99.90;;;;;;5093883;28;20228;-40
2022/03/15 10:17:02;;;;;;;41.00;22.40;;;8.10;99.90;;;;;;5094284;28;20201;-40
2022/03/15 10:19:52;;;;;;;44.57;23.00;;;8.20;99.90;;;;;;5092633;28;20213;-40
2022/03/15 10:22:23;;;;;;;39.10;21.47;;;8.30;99.90;;;;;;5096378;28;20213;-40
2022/03/15 10:24:50;;;;;;;40.77;21.07;;;8.30;99.90;;;;;;5098647;28;20189;-40
2022/03/15 10:27:17;;;;;;;42.20;22.13;;;8.40;99.90;;;;;;5086917;28;20205;-40
2022/03/15 10:29:47;;;;;;;46.50;22.70;;;8.40;99.90;;;;;;5080006;27;20939;-40
2022/03/15 10:32:15;;;;;;;40.50;20.43;;;8.40;99.90;;;;;;5085386;28;20197;-41
2022/03/15 10:34:42;;;;;;;41.07;22.77;;;8.40;99.90;;;;;;5068421;28;20210;-40
2022/03/15 10:37:08;;;;;;;39.43;20.53;;;8.40;99.90;;;;;;5092968;28;20205;-40
2022/03/15 10:39:39;;;;;;;42.77;21.70;;;8.50;99.90;;;;;;5084804;28;20622;-40
2022/03/15 10:42:08;;;;;;;42.67;21.10;;;8.40;99.90;;;;;;5081272;28;20942;-41
2022/03/15 10:44:36;;;;;;;41.73;21.60;;;8.50;99.90;;;;;;5084097;28;20217;-42
2022/03/15 10:47:07;;;;;;;40.10;20.07;;;10.50;99.90;;;;;;5092082;28;20337;-45
2022/03/15 10:49:47;;;;;;;45.63;21.13;;;8.70;99.90;;;;;;5101203;28;20205;-40
2022/03/15 10:52:16;;;;;;;43.80;22.70;;;8.70;99.90;;;;;;5093616;28;20207;-41
2022/03/15 10:54:45;;;;;;;48.00;22.23;;;8.80;99.90;;;;;;5091828;28;20296;-40
2022/03/15 10:57:12;;;;;;;42.07;21.90;;;8.90;99.90;;;;;;5087768;28;20576;-42
2022/03/15 10:59:43;;;;;;;39.97;20.87;;;8.90;99.90;;;;;;5093546;28;20212;-41
2022/03/15 11:02:12;;;;;;;45.17;21.67;;;8.90;99.90;;;;;;5094419;28;20201;-41
2022/03/15 11:04:47;;;;;;;43.77;22.03;;;8.90;99.90;;;;;;5096407;28;20740;-41
2022/03/15 11:07:14;;;;;;;43.37;21.33;;;9.00;99.90;;;;;;5090878;28;20193;-40
2022/03/15 11:09:49;;;;;;;45.50;22.50;;;9.10;99.90;;;;;;5083883;28;20203;-41
2022/03/15 11:12:17;;;;;;;40.57;22.97;;;9.10;99.90;;;;;;5080169;28;20205;-39
2022/03/15 11:14:47;;;;;;;43.53;21.20;;;9.20;99.90;;;;;;5092484;28;20350;-40
2022/03/15 11:17:16;;;;;;;42.60;22.80;;;9.30;99.90;;;;;;5102149;28;20209;-39
2022/03/15 11:19:46;;;;;;;36.40;20.57;;;9.30;99.90;;;;;;5092408;28;20217;-39
2022/03/15 11:22:15;;;;;;;39.90;21.47;;;9.40;99.90;;;;;;5076240;28;20202;-39
2022/03/15 11:24:44;;;;;;;56.97;29.37;;;9.40;99.90;;;;;;5092682;28;20197;-40
2022/03/15 11:27:17;;;;;;;38.57;20.57;;;9.50;99.90;;;;;;5087001;28;20202;-40
2022/03/15 11:29:45;;;;;;;37.40;19.47;;;9.60;99.90;;;;;;5083910;28;20213;-40
2022/03/15 11:32:14;;;;;;;32.33;20.70;;;9.70;99.90;;;;;;5090602;28;20551;-44
2022/03/15 11:34:42;;;;;;;29.17;18.50;;;9.70;99.90;;;;;;5098478;28;20217;-40
2022/03/15 11:37:11;;;;;;;31.53;18.17;;;9.80;99.90;;;;;;5102953;28;20209;-40
2022/03/15 11:39:39;;;;;;;29.83;17.07;;;9.90;99.90;;;;;;5097736;28;20213;-40
2022/03/15 11:42:09;;;;;;;36.40;19.87;;;9.90;99.90;;;;;;5098474;28;20240;-40
2022/03/15 11:44:49;;;;;;;37.10;18.83;;;10.10;99.90;;;;;;5086576;28;20213;-40
2022/03/15 11:47:28;;;;;;;27.90;17.60;;;9.10;99.90;;;;;;5094820;28;20684;-40
2022/03/15 11:50:02;;;;;;;29.27;16.60;;;10.20;99.90;;;;;;5100909;28;20215;-41
2022/03/15 11:52:38;;;;;;;32.27;18.57;;;10.20;99.90;;;;;;5091585;27;20200;-43
2022/03/15 11:55:17;;;;;;;28.63;18.40;;;10.30;99.90;;;;;;5093409;28;20273;-41
2022/03/15 11:57:51;;;;;;;31.30;18.43;;;10.30;99.90;;;;;;5098728;28;20204;-41
2022/03/15 12:00:32;;;;;;;30.13;17.73;;;10.30;99.90;;;;;;5073928;27;20206;-41
2022/03/15 12:03:00;;;;;;;29.37;17.50;;;10.50;99.90;;;;;;5096865;28;20228;-44
2022/03/15 12:05:27;;;;;;;27.13;16.97;;;10.50;99.90;;;;;;5096863;27;20266;-43
2022/03/15 12:08:13;;;;;;;30.30;17.10;;;10.50;99.90;;;;;;5104591;28;20194;-41
2022/03/15 12:10:44;;;;;;;28.17;16.27;;;10.50;99.90;;;;;;5092879;28;20209;-41
2022/03/15 12:13:14;;;;;;;24.27;15.53;;;10.50;99.90;;;;;;5090038;28;20217;-43
2022/03/15 12:15:45;;;;;;;30.03;15.97;;;10.60;99.90;;;;;;5082618;28;20390;-43
2022/03/15 12:18:27;;;;;;;21.97;12.33;;;10.70;99.90;;;;;;5103753;28;20250;-42
2022/03/15 12:21:02;;;;;;;26.60;13.13;;;10.70;99.90;;;;;;5097137;28;20197;-43
2022/03/15 12:23:38;;;;;;;22.00;14.53;;;10.80;99.90;;;;;;5095313;28;20368;-41
2022/03/15 12:26:05;;;;;;;29.47;15.30;;;10.80;99.90;;;;;;5097421;28;20510;-40
2022/03/15 12:28:33;;;;;;;25.43;13.73;;;10.90;99.90;;;;;;5074538;28;21161;-44
2022/03/15 12:31:09;;;;;;;25.23;13.53;;;10.90;99.90;;;;;;5094791;28;20198;-41
2022/03/15 12:33:36;;;;;;;22.07;13.47;;;11.00;99.90;;;;;;5101815;28;20217;-43
2022/03/15 12:36:05;;;;;;;22.00;11.53;;;11.00;99.90;;;;;;5104472;28;20205;-44
2022/03/15 12:38:34;;;;;;;25.83;11.60;;;11.00;99.90;;;;;;5093268;28;20920;-44
2022/03/15 12:41:02;;;;;;;21.10;11.80;;;11.00;99.90;;;;;;5098265;28;20197;-41